Jaraguari, Brazil
Current Conditions -  °F | °C
As of 12:00 PM on Wednesday 22 Oct 2014 (Local Time) from SBCG Reporting Station
Clear Clear  
Wind Chill: 81°   Ceiling: Unl
Heat Index: 81°   Visibility: 6mi
Dew Point: 61°   Wind: 14mph
Humidity: 51%   Direction: 90°E
Pressure: 30.03"   Gusts: NA
Location:  20.14°S, 54.4°W
Report Text: SBCG 221500Z 09012KT CAVOK 27/16 Q1017
Loading
Personal Weather Stations






























Interactive Weather Map
Tropical Storm Tracking
New forecast layout! Learn more

10-Day Weather Forecast

Advertisements
Track Severe Weather on mobile